Time;durP1;ratioP1;P1;durP2;ratioP2;P2;SDS_P1;SDS_P2;PMS_P1;PMS_P2;Temp;Humidity;BMP_temperature;BMP_pressure;BME280_temperature;BME280_humidity;BME280_pressure;Samples;Min_cycle;Max_cycle;Signal;HPM_P1;HPM_P2
2021/06/18 00:00:17;;;;;;;3.16;1.52;;;;;;;21.63;71.31;100963.92;458400;113;924036;-66
2021/06/18 00:01:24;;;;;;;3.82;1.42;;;;;;;21.60;71.65;100968.10;458734;113;922848;-66
2021/06/18 00:02:28;;;;;;;3.42;1.66;;;;;;;21.55;72.11;100970.88;458506;115;923030;-66
2021/06/18 00:03:31;;;;;;;9.39;1.96;;;;;;;21.46;72.53;100968.92;458487;113;922617;-64
2021/06/18 00:04:35;;;;;;;5.60;2.06;;;;;;;21.37;72.99;100948.40;458163;115;922686;-66
2021/06/18 00:05:39;;;;;;;5.54;1.81;;;;;;;21.29;73.61;100947.00;458178;114;922787;-66
2021/06/18 00:06:42;;;;;;;8.86;2.24;;;;;;;21.22;74.10;100940.91;458731;113;922630;-67
2021/06/18 00:07:48;;;;;;;3.58;1.69;;;;;;;21.08;74.82;100936.97;458180;113;930540;-66
2021/06/18 00:08:51;;;;;;;3.39;1.44;;;;;;;21.08;74.82;100936.97;458600;114;922699;-65
2021/06/18 00:09:55;;;;;;;3.79;2.12;;;;;;;20.98;74.65;100948.05;458298;113;922552;-66
2021/06/18 00:10:58;;;;;;;7.09;1.57;;;;;;;20.85;74.91;100943.86;458788;115;922430;-66
2021/06/18 00:12:03;;;;;;;8.83;2.11;;;;;;;20.75;75.38;100938.30;458104;113;922806;-66
2021/06/18 00:13:07;;;;;;;3.57;1.49;;;;;;;20.65;75.72;100936.34;458710;114;922508;-65
2021/06/18 00:14:11;;;;;;;3.66;1.67;;;;;;;20.58;75.96;100937.70;458773;113;922883;-66
2021/06/18 00:15:15;;;;;;;3.30;1.71;;;;;;;20.52;76.27;100936.02;458327;113;930438;-64
2021/06/18 00:16:20;;;;;;;4.04;1.86;;;;;;;20.47;76.50;100949.84;457669;115;930269;-67
2021/06/18 00:17:24;;;;;;;2.71;1.46;;;;;;;20.43;76.76;100951.50;458342;113;924027;-64
2021/06/18 00:18:27;;;;;;;3.44;1.78;;;;;;;20.41;76.96;100962.84;458358;114;933420;-65
2021/06/18 00:19:31;;;;;;;4.39;1.88;;;;;;;20.41;77.07;100957.30;457918;113;924092;-65
2021/06/18 00:20:35;;;;;;;5.68;2.00;;;;;;;20.43;77.22;100955.11;457882;115;924485;-67
2021/06/18 00:21:39;;;;;;;3.65;2.00;;;;;;;20.44;77.32;100964.25;458207;115;925665;-67
2021/06/18 00:22:44;;;;;;;3.06;1.73;;;;;;;20.46;77.37;100960.09;458268;115;934025;-64
2021/06/18 00:23:48;;;;;;;2.93;1.92;;;;;;;20.47;77.33;100952.63;458329;115;922699;-63
2021/06/18 00:24:53;;;;;;;4.12;1.52;;;;;;;20.49;77.40;100955.96;457897;113;924453;-64
2021/06/18 00:25:57;;;;;;;5.77;1.99;;;;;;;20.50;77.13;100960.41;457733;114;932634;-64
2021/06/18 00:27:01;;;;;;;3.40;1.72;;;;;;;20.52;77.04;100963.72;458327;113;925326;-64
2021/06/18 00:28:05;;;;;;;4.85;1.96;;;;;;;20.52;77.11;100967.32;457993;113;926491;-64
2021/06/18 00:29:08;;;;;;;3.91;1.86;;;;;;;20.53;77.15;100954.30;458222;115;932359;-65
2021/06/18 00:30:14;;;;;;;2.51;1.50;;;;;;;20.55;77.24;100952.95;457982;113;923953;-64
2021/06/18 00:31:18;;;;;;;3.63;1.83;;;;;;;20.57;77.26;100953.48;458368;115;923984;-65
2021/06/18 00:32:22;;;;;;;2.75;1.91;;;;;;;20.58;77.24;100954.32;458497;113;922555;-65
2021/06/18 00:33:26;;;;;;;2.39;1.46;;;;;;;20.59;77.36;100948.52;458474;113;932667;-65
2021/06/18 00:34:30;;;;;;;4.22;1.51;;;;;;;20.61;77.19;100951.02;458057;115;924657;-64
2021/06/18 00:35:34;;;;;;;4.14;1.91;;;;;;;20.63;76.99;100955.17;458214;115;926911;-65
2021/06/18 00:36:38;;;;;;;4.35;1.79;;;;;;;20.65;76.97;100952.97;457717;113;924107;-66
2021/06/18 00:37:41;;;;;;;4.36;1.70;;;;;;;20.68;76.98;100951.58;458580;115;924931;-65
2021/06/18 00:38:45;;;;;;;6.08;1.89;;;;;;;20.69;76.83;100951.31;457901;115;924217;-64
2021/06/18 00:39:49;;;;;;;4.00;1.41;;;;;;;20.71;76.71;100948.28;458156;115;932029;-68
2021/06/18 00:40:53;;;;;;;3.94;1.61;;;;;;;20.72;76.77;100947.17;458495;114;930289;-66
2021/06/18 00:41:57;;;;;;;5.48;1.55;;;;;;;20.73;76.74;100948.85;457955;115;925822;-64
2021/06/18 00:43:00;;;;;;;5.85;1.65;;;;;;;20.74;76.65;100945.78;458488;113;922571;-64
2021/06/18 00:44:05;;;;;;;6.01;1.65;;;;;;;20.75;76.59;100944.68;457941;113;924549;-66
2021/06/18 00:45:09;;;;;;;3.13;1.48;;;;;;;20.78;76.61;100943.32;458833;113;923335;-64
2021/06/18 00:46:14;;;;;;;3.25;1.32;;;;;;;20.79;76.54;100942.19;457851;113;924062;-64
2021/06/18 00:47:22;;;;;;;4.61;1.86;;;;;;;20.81;76.41;100942.75;458527;113;924015;-65
2021/06/18 00:48:27;;;;;;;3.36;1.54;;;;;;;20.83;76.32;100948.87;458056;115;924139;-64
2021/06/18 00:49:32;;;;;;;3.15;1.40;;;;;;;20.84;76.27;100946.94;458415;114;923018;-64
2021/06/18 00:50:36;;;;;;;3.49;1.49;;;;;;;20.86;76.30;100956.63;458355;115;931728;-66
2021/06/18 00:51:40;;;;;;;6.39;1.81;;;;;;;20.88;76.21;100959.13;458289;113;925067;-64
2021/06/18 00:52:45;;;;;;;4.85;1.39;;;;;;;20.88;76.17;100946.11;458294;115;924509;-65
2021/06/18 00:53:49;;;;;;;3.62;1.64;;;;;;;20.89;76.10;100953.32;458413;115;926236;-66
2021/06/18 00:54:53;;;;;;;2.66;1.28;;;;;;;20.92;76.08;100957.47;457630;115;924033;-66
2021/06/18 00:55:57;;;;;;;6.46;1.81;;;;;;;20.93;76.00;100950.82;458262;115;924612;-63
2021/06/18 00:57:02;;;;;;;4.76;1.76;;;;;;;20.94;75.95;100955.27;458983;113;922607;-65
2021/06/18 00:58:06;;;;;;;2.09;1.39;;;;;;;20.95;75.95;100956.94;458772;113;922456;-65
2021/06/18 00:59:11;;;;;;;5.89;1.62;;;;;;;20.95;75.83;100954.97;457855;113;930603;-64
2021/06/18 01:00:16;;;;;;;2.98;1.56;;;;;;;20.96;75.73;100953.86;458656;113;922509;-64
2021/06/18 01:01:21;;;;;;;4.31;1.75;;;;;;;20.96;75.75;100953.86;458654;113;930304;-66
2021/06/18 01:02:25;;;;;;;2.81;1.48;;;;;;;20.97;75.62;100955.54;458636;114;922459;-64
2021/06/18 01:03:28;;;;;;;4.37;1.82;;;;;;;20.97;75.52;100952.77;458711;113;923077;-64
2021/06/18 01:04:33;;;;;;;4.36;1.62;;;;;;;20.98;75.51;100961.91;458439;113;930445;-66
2021/06/18 01:05:37;;;;;;;6.46;1.66;;;;;;;20.99;75.56;100958.87;458540;114;923056;-65
2021/06/18 01:06:44;;;;;;;5.02;1.82;;;;;;;21.00;75.51;100959.72;457768;113;922399;-64
2021/06/18 01:07:57;;;;;;;1.98;1.41;;;;;;;21.00;75.42;100960.55;457856;113;922881;-66
2021/06/18 01:09:07;;;;;;;2.66;1.79;;;;;;;21.01;75.33;100964.12;457686;114;922484;-65
2021/06/18 01:10:15;;;;;;;3.08;1.46;;;;;;;21.01;75.45;100967.73;457529;115;923006;-65
2021/06/18 01:11:29;;;;;;;1.95;1.31;;;;;;;21.01;75.44;100967.73;458067;115;922447;-66
2021/06/18 01:12:39;;;;;;;3.62;1.75;;;;;;;21.02;75.46;100969.41;457840;114;924557;-65
2021/06/18 01:14:05;;;;;;;4.73;1.79;;;;;;;21.04;75.52;100967.20;456091;113;924567;-64
2021/06/18 01:15:18;;;;;;;3.04;2.12;;;;;;;21.04;75.45;100975.52;458303;113;931944;-66
2021/06/18 01:16:29;;;;;;;3.07;1.54;;;;;;;21.03;75.41;100971.08;457246;113;922544;-66
2021/06/18 01:17:56;;;;;;;3.97;1.44;;;;;;;21.03;75.50;100975.78;458013;115;924052;-66
2021/06/18 01:19:13;;;;;;;3.65;1.62;;;;;;;21.02;75.54;100968.56;457923;114;923980;-67
2021/06/18 01:20:27;;;;;;;7.74;2.22;;;;;;;21.03;75.59;100975.78;457815;114;924640;-64
2021/06/18 01:21:37;;;;;;;2.51;1.79;;;;;;;21.04;75.54;100971.91;457184;115;924092;-67
2021/06/18 01:22:44;;;;;;;5.29;1.80;;;;;;;21.03;75.51;100971.08;458050;113;924008;-66
2021/06/18 01:24:20;;;;;;;5.66;1.96;;;;;;;21.03;75.51;100959.98;457999;115;925167;-67
2021/06/18 01:25:28;;;;;;;2.55;1.60;;;;;;;21.04;75.45;100975.52;458031;115;922620;-65
2021/06/18 01:26:36;;;;;;;2.58;1.59;;;;;;;21.02;75.44;100969.41;455771;115;924381;-64
2021/06/18 01:27:48;;;;;;;4.01;1.56;;;;;;;21.03;75.46;100970.24;457642;113;926985;-66
2021/06/18 01:28:57;;;;;;;5.04;1.64;;;;;;;21.03;75.50;100975.78;457506;115;924040;-67
2021/06/18 01:30:07;;;;;;;5.78;1.64;;;;;;;21.03;75.47;100976.63;457808;115;926508;-65
2021/06/18 01:31:16;;;;;;;3.16;1.72;;;;;;;21.04;75.45;100983.84;457986;113;923976;-64
2021/06/18 01:32:23;;;;;;;8.23;1.74;;;;;;;21.04;75.39;100972.75;458467;113;922915;-66
2021/06/18 01:33:28;;;;;;;1.77;1.33;;;;;;;21.05;75.35;100977.19;458309;113;924033;-65
2021/06/18 01:34:35;;;;;;;5.92;1.95;;;;;;;21.06;75.39;100973.28;457962;114;923981;-65
2021/06/18 01:35:46;;;;;;;2.73;1.92;;;;;;;21.07;75.38;100974.95;458356;113;924005;-66
2021/06/18 01:36:54;;;;;;;4.72;2.07;;;;;;;21.09;75.33;100980.23;456970;113;923734;-65
2021/06/18 01:38:00;;;;;;;2.23;1.51;;;;;;;21.10;75.22;100979.97;458174;115;932868;-65
2021/06/18 01:39:05;;;;;;;3.16;1.70;;;;;;;21.11;75.11;100983.58;458008;114;923718;-64
2021/06/18 01:40:11;;;;;;;3.61;1.64;;;;;;;21.11;75.10;100978.03;458280;113;925323;-65
2021/06/18 01:41:24;;;;;;;4.07;1.81;;;;;;;21.12;74.99;100988.83;458388;113;924085;-63
2021/06/18 01:42:30;;;;;;;2.81;1.69;;;;;;;21.12;74.92;100986.05;457552;115;924258;-66
2021/06/18 01:43:36;;;;;;;6.82;2.74;;;;;;;21.13;74.91;100987.73;457824;113;924056;-66
2021/06/18 01:44:40;;;;;;;7.10;1.71;;;;;;;21.13;74.98;100987.73;457892;113;923987;-68
2021/06/18 01:45:46;;;;;;;4.20;2.35;;;;;;;21.13;75.03;100987.73;458147;113;924185;-66
2021/06/18 01:46:53;;;;;;;4.52;1.99;;;;;;;21.14;75.03;100985.78;457460;113;932041;-66
2021/06/18 01:47:58;;;;;;;3.89;1.78;;;;;;;21.15;75.05;100991.10;457859;114;922859;-65
2021/06/18 01:49:05;;;;;;;4.60;1.77;;;;;;;21.16;75.08;100989.16;457931;115;922615;-67
2021/06/18 01:50:12;;;;;;;4.11;1.87;;;;;;;21.16;75.06;100992.77;458289;114;922438;-66
2021/06/18 01:51:17;;;;;;;3.36;1.54;;;;;;;21.16;74.96;100987.23;458112;114;922507;-66
2021/06/18 01:52:22;;;;;;;5.21;2.21;;;;;;;21.16;75.02;100995.55;457882;113;922422;-64
2021/06/18 01:53:27;;;;;;;2.86;1.62;;;;;;;21.16;74.94;100987.23;459148;113;930615;-66
2021/06/18 01:54:32;;;;;;;6.34;1.83;;;;;;;21.16;74.94;100987.23;457716;113;922600;-66
2021/06/18 01:55:37;;;;;;;5.09;1.98;;;;;;;21.16;74.86;100990.00;458188;115;922502;-65
2021/06/18 01:56:44;;;;;;;5.38;2.15;;;;;;;21.16;74.70;100987.23;459091;113;922899;-65
2021/06/18 01:57:50;;;;;;;2.26;1.82;;;;;;;21.16;74.66;100989.16;458282;113;922587;-67
2021/06/18 01:58:57;;;;;;;3.79;1.83;;;;;;;21.16;74.65;100981.68;457727;114;924033;-64
2021/06/18 02:00:05;;;;;;;2.83;1.71;;;;;;;21.17;74.62;100990.84;458127;113;924443;-66
2021/06/18 02:01:12;;;;;;;3.67;2.08;;;;;;;21.16;74.57;100978.91;457478;113;924089;-66
2021/06/18 02:02:16;;;;;;;2.98;1.81;;;;;;;21.17;74.47;100988.06;458407;114;925780;-66
2021/06/18 02:03:24;;;;;;;4.71;1.67;;;;;;;21.17;74.40;100982.52;458123;114;923989;-67
2021/06/18 02:04:29;;;;;;;5.14;2.03;;;;;;;21.17;74.37;100976.97;458095;115;924586;-65
2021/06/18 02:05:36;;;;;;;4.32;1.71;;;;;;;21.18;74.26;100989.70;457831;115;924460;-63
2021/06/18 02:06:43;;;;;;;3.78;1.99;;;;;;;21.16;74.22;100990.00;458844;113;924246;-65
2021/06/18 02:07:49;;;;;;;4.86;2.19;;;;;;;21.16;74.19;100981.68;458030;113;924262;-64
2021/06/18 02:08:56;;;;;;;4.28;3.59;;;;;;;21.16;74.24;100981.68;458343;115;924034;-64
2021/06/18 02:10:03;;;;;;;9.01;2.48;;;;;;;21.16;74.20;100986.39;457861;115;924011;-65
2021/06/18 02:11:08;;;;;;;6.06;1.82;;;;;;;21.16;74.14;100987.23;458026;115;925158;-66
2021/06/18 02:12:12;;;;;;;5.34;2.06;;;;;;;21.16;74.13;100984.45;458646;113;925512;-65
2021/06/18 02:13:17;;;;;;;5.52;2.07;;;;;;;21.16;74.03;100980.84;457945;115;924700;-65
2021/06/18 02:14:24;;;;;;;3.19;1.93;;;;;;;21.16;73.89;100970.59;458503;113;924036;-65
2021/06/18 02:15:30;;;;;;;4.71;1.83;;;;;;;21.17;73.81;100971.42;458040;113;924047;-64
2021/06/18 02:16:38;;;;;;;7.70;1.96;;;;;;;21.17;73.67;100979.73;458176;115;925677;-66
2021/06/18 02:17:44;;;;;;;5.68;2.14;;;;;;;21.16;73.66;100975.30;458430;113;922514;-65
2021/06/18 02:18:49;;;;;;;5.81;2.81;;;;;;;21.16;73.72;100970.59;458091;115;924693;-67
2021/06/18 02:19:56;;;;;;;4.11;1.85;;;;;;;21.15;73.67;100971.69;457804;115;925513;-66
2021/06/18 02:21:01;;;;;;;3.72;1.94;;;;;;;21.15;73.64;100971.69;457936;113;922655;-66
2021/06/18 02:22:07;;;;;;;5.42;2.16;;;;;;;21.15;73.57;100974.46;458261;115;922499;-64
2021/06/18 02:23:12;;;;;;;5.04;2.01;;;;;;;21.14;73.50;100978.34;457909;115;931936;-65
2021/06/18 02:24:17;;;;;;;4.44;2.09;;;;;;;21.13;73.51;100982.18;458060;115;924583;-65
2021/06/18 02:25:22;;;;;;;3.11;2.03;;;;;;;21.13;73.58;100973.02;458018;115;924122;-65
2021/06/18 02:26:26;;;;;;;5.17;2.39;;;;;;;21.12;73.64;100974.12;458362;113;924023;-66
2021/06/18 02:27:32;;;;;;;3.68;1.77;;;;;;;21.12;73.74;100977.73;457974;113;926222;-66
2021/06/18 02:28:36;;;;;;;6.18;1.88;;;;;;;21.12;73.78;100976.90;458084;113;926709;-66
2021/06/18 02:29:41;;;;;;;3.38;2.10;;;;;;;21.13;73.88;100984.12;458515;115;923005;-66
2021/06/18 02:30:46;;;;;;;6.93;2.49;;;;;;;21.13;73.86;100987.73;458131;113;927687;-65
2021/06/18 02:31:56;;;;;;;5.51;1.72;;;;;;;21.13;73.90;100984.95;458206;113;924064;-66
2021/06/18 02:33:04;;;;;;;3.92;2.02;;;;;;;21.14;73.96;100983.88;443603;117;925381;-66
2021/06/18 02:34:08;;;;;;;3.54;2.02;;;;;;;21.14;73.98;100986.66;450397;113;922945;-66
2021/06/18 02:35:12;;;;;;;5.78;2.05;;;;;;;21.14;73.95;100983.88;458144;115;922457;-65
2021/06/18 02:36:17;;;;;;;4.71;2.45;;;;;;;21.14;73.96;100986.66;458913;114;922499;-65
2021/06/18 02:37:21;;;;;;;4.34;1.96;;;;;;;21.15;73.87;100990.27;458341;113;922497;-66
2021/06/18 02:38:25;;;;;;;5.96;2.12;;;;;;;21.15;73.80;100991.10;458565;115;923322;-67
2021/06/18 02:39:28;;;;;;;4.68;2.11;;;;;;;21.16;73.79;100986.39;458236;115;923287;-66
2021/06/18 02:40:32;;;;;;;4.81;2.15;;;;;;;21.16;73.81;100992.77;458105;115;923506;-66
2021/06/18 02:41:36;;;;;;;7.47;2.07;;;;;;;21.17;73.81;100990.84;458413;113;922927;-65
2021/06/18 02:42:40;;;;;;;6.67;2.62;;;;;;;21.17;73.84;100986.09;458137;115;930317;-63
2021/06/18 02:43:45;;;;;;;5.53;2.24;;;;;;;21.18;73.79;100984.98;458387;113;922564;-65
2021/06/18 02:44:49;;;;;;;4.77;1.91;;;;;;;21.18;73.67;100984.98;458777;113;922504;-64
2021/06/18 02:45:52;;;;;;;4.44;2.24;;;;;;;21.19;73.70;100992.20;458341;113;923050;-66
2021/06/18 02:47:00;;;;;;;4.86;2.12;;;;;;;21.20;73.71;100979.17;458388;113;923119;-64
2021/06/18 02:48:16;;;;;;;5.57;2.50;;;;;;;21.20;73.77;100988.33;456944;113;922591;-65
2021/06/18 02:49:23;;;;;;;5.03;2.00;;;;;;;21.19;73.83;100983.89;457435;115;922496;-65
2021/06/18 02:50:39;;;;;;;6.91;2.78;;;;;;;21.19;73.91;100983.05;457643;115;922587;-65
2021/06/18 02:51:49;;;;;;;5.54;2.42;;;;;;;21.18;73.91;100990.53;432107;120;924349;-64
2021/06/18 02:53:09;;;;;;;8.55;2.28;;;;;;;21.29;73.84;100985.83;468644;110;949053;-64
2021/06/18 02:54:20;;;;;;;5.63;2.06;;;;;;;21.16;73.88;100984.45;448161;114;923084;-65
2021/06/18 02:55:29;;;;;;;3.29;1.74;;;;;;;21.16;73.83;100990.00;459140;112;923982;-65
2021/06/18 02:56:57;;;;;;;4.37;1.94;;;;;;;21.17;73.86;100993.61;461100;114;922576;-67
2021/06/18 02:58:07;;;;;;;4.83;2.21;;;;;;;21.17;73.86;100988.86;450914;116;925638;-64
2021/06/18 02:59:31;;;;;;;5.32;2.37;;;;;;;21.19;73.85;100992.20;448377;116;924211;-65
2021/06/18 03:00:39;;;;;;;6.88;1.99;;;;;;;21.19;73.90;100985.83;450749;114;925288;-64
2021/06/18 03:01:44;;;;;;;6.09;1.88;;;;;;;21.18;73.87;100993.31;448751;114;924021;-66
2021/06/18 03:02:55;;;;;;;7.66;2.66;;;;;;;21.17;73.82;100994.41;450157;114;924114;-67
2021/06/18 03:04:01;;;;;;;4.45;1.99;;;;;;;21.17;73.82;100997.19;454814;114;924021;-66
2021/06/18 03:05:08;;;;;;;3.17;2.18;;;;;;;21.18;73.80;100995.25;450085;116;926947;-66
2021/06/18 03:06:16;;;;;;;5.38;2.06;;;;;;;21.17;73.79;100994.41;451674;115;924494;-65
2021/06/18 03:07:23;;;;;;;6.96;2.33;;;;;;;21.19;73.81;100992.20;449859;116;924023;-65
2021/06/18 03:08:31;;;;;;;5.55;1.98;;;;;;;21.18;73.81;100987.77;448856;114;927212;-64
2021/06/18 03:09:38;;;;;;;10.70;2.36;;;;;;;21.21;73.77;100994.71;449952;114;924320;-66
2021/06/18 03:10:44;;;;;;;3.71;2.31;;;;;;;21.21;73.71;100991.94;450934;114;922544;-64
2021/06/18 03:11:50;;;;;;;3.61;1.96;;;;;;;21.23;73.66;100997.22;451315;115;924030;-64
2021/06/18 03:13:01;;;;;;;4.82;2.09;;;;;;;21.23;73.57;100995.25;452795;116;924600;-64
2021/06/18 03:14:09;;;;;;;;;;;;;;;21.25;73.55;101003.30;456296;114;922076;-65
2021/06/18 03:15:14;;;;;;;5.31;2.01;;;;;;;21.25;73.48;101000.53;452807;114;925152;-65
2021/06/18 03:16:21;;;;;;;6.11;2.33;;;;;;;21.23;73.42;100997.22;450115;114;925320;-65
2021/06/18 03:17:25;;;;;;;2.97;1.96;;;;;;;21.22;73.40;101007.48;449240;116;924077;-64
2021/06/18 03:18:31;;;;;;;3.09;1.96;;;;;;;21.23;73.44;101013.86;451948;116;926505;-65
2021/06/18 03:19:41;;;;;;;5.12;2.07;;;;;;;21.22;73.49;101007.48;449934;116;931791;-67
2021/06/18 03:20:50;;;;;;;5.43;1.94;;;;;;;21.23;73.55;101004.41;452907;114;923057;-65
2021/06/18 03:21:55;;;;;;;3.35;1.75;;;;;;;21.25;73.45;101012.46;454014;114;924009;-65
2021/06/18 03:23:02;;;;;;;7.17;1.71;;;;;;;21.26;73.31;101010.52;449388;114;926265;-64
2021/06/18 03:24:08;;;;;;;4.42;2.69;;;;;;;21.27;73.23;101009.42;449721;116;924006;-67
2021/06/18 03:25:14;;;;;;;4.04;2.13;;;;;;;21.26;73.14;101010.52;454048;114;922622;-65
2021/06/18 03:26:20;;;;;;;3.79;1.99;;;;;;;21.26;73.09;101007.75;448744;116;924534;-66
2021/06/18 03:27:25;;;;;;;5.21;1.99;;;;;;;21.26;73.16;101003.04;451624;116;924039;-67
2021/06/18 03:28:30;;;;;;;6.18;2.02;;;;;;;21.27;73.28;101004.71;450176;114;922847;-63
2021/06/18 03:29:35;;;;;;;4.14;1.81;;;;;;;21.27;73.43;101007.48;453972;114;922804;-65
2021/06/18 03:30:40;;;;;;;11.06;1.89;;;;;;;21.27;73.43;101007.48;452668;114;930513;-64
2021/06/18 03:31:44;;;;;;;5.51;2.02;;;;;;;21.28;73.44;100998.03;449743;114;923003;-65
2021/06/18 03:32:50;;;;;;;3.87;1.82;;;;;;;21.30;73.40;101004.14;450573;114;924096;-71
2021/06/18 03:33:57;;;;;;;6.86;1.63;;;;;;;21.33;73.26;100997.23;451251;114;922523;-73
2021/06/18 03:35:01;;;;;;;6.39;1.89;;;;;;;21.34;73.26;100990.55;452101;116;925542;-73
2021/06/18 03:36:06;;;;;;;7.04;2.56;;;;;;;21.36;73.24;101003.05;446247;116;924538;-74
2021/06/18 03:37:11;;;;;;;4.74;1.79;;;;;;;21.38;73.23;101005.55;446127;116;925320;-70
2021/06/18 03:38:16;;;;;;;3.57;1.76;;;;;;;21.38;73.15;101006.39;449823;114;927115;-73
2021/06/18 03:39:21;;;;;;;3.78;1.70;;;;;;;21.41;73.10;101013.30;451362;114;922607;-72
2021/06/18 03:40:27;;;;;;;6.11;1.92;;;;;;;21.42;73.06;101013.04;451382;114;922490;-73
2021/06/18 03:41:31;;;;;;;3.46;1.62;;;;;;;21.43;73.08;101016.65;441039;117;924114;-74
2021/06/18 03:42:39;;;;;;;3.75;1.94;;;;;;;21.45;73.07;101019.96;445185;116;924088;-73
2021/06/18 03:43:44;;;;;;;2.99;1.81;;;;;;;21.46;73.12;101027.19;450522;116;925534;-73
2021/06/18 03:44:49;;;;;;;2.89;1.61;;;;;;;21.46;73.02;101021.63;452383;116;922461;-72
2021/06/18 03:45:56;;;;;;;10.34;2.18;;;;;;;21.45;72.92;101023.57;450890;114;925951;-72
2021/06/18 03:47:02;;;;;;;2.30;2.07;;;;;;;21.46;72.83;101024.41;451624;116;922453;-80
2021/06/18 03:48:12;;;;;;;4.09;1.96;;;;;;;21.46;72.72;101024.41;451950;114;923817;-76
2021/06/18 03:49:17;;;;;;;2.99;1.81;;;;;;;21.46;72.72;101027.19;452114;114;925450;-74
2021/06/18 03:50:24;;;;;;;3.64;1.94;;;;;;;21.47;72.72;101026.08;450216;116;922696;-71
2021/06/18 03:51:29;;;;;;;4.64;2.09;;;;;;;21.47;72.71;101028.85;452325;116;925711;-73
2021/06/18 03:52:33;;;;;;;4.62;2.19;;;;;;;21.47;72.65;101026.08;449450;116;926033;-75
2021/06/18 03:53:37;;;;;;;7.46;2.15;;;;;;;21.46;72.62;101025.24;449299;116;924917;-74
2021/06/18 03:54:42;;;;;;;3.00;1.73;;;;;;;21.46;72.68;101032.73;450865;116;924541;-73
2021/06/18 03:55:47;;;;;;;6.70;2.23;;;;;;;21.45;72.73;101026.34;451980;115;932259;-72
2021/06/18 03:56:53;;;;;;;3.42;2.14;;;;;;;21.46;72.88;101027.19;452453;115;926388;-76
2021/06/18 03:58:00;;;;;;;3.84;2.46;;;;;;;21.46;72.93;101024.41;448322;116;923000;-73
2021/06/18 03:59:04;;;;;;;3.72;2.02;;;;;;;21.47;72.85;101020.53;451964;116;924040;-71
2021/06/18 04:00:10;;;;;;;4.44;1.99;;;;;;;21.47;72.84;101026.08;450014;116;924088;-73
2021/06/18 04:01:16;;;;;;;2.38;1.74;;;;;;;21.48;72.90;101030.52;449067;116;923982;-73
2021/06/18 04:02:24;;;;;;;5.62;1.95;;;;;;;21.47;72.89;101021.36;442988;118;923912;-73
2021/06/18 04:03:29;;;;;;;5.36;1.92;;;;;;;21.47;72.91;101026.91;441749;116;926783;-76
2021/06/18 04:04:35;;;;;;;3.29;1.86;;;;;;;21.48;73.01;101022.20;449499;116;923907;-75
2021/06/18 04:05:41;;;;;;;4.21;2.03;;;;;;;21.48;73.00;101033.30;451622;115;932030;-73
2021/06/18 04:06:46;;;;;;;5.56;2.10;;;;;;;21.48;73.05;101034.13;450378;116;923956;-72
2021/06/18 04:07:53;;;;;;;3.68;2.28;;;;;;;21.48;73.09;101034.13;452617;116;924041;-74
2021/06/18 04:08:57;;;;;;;5.92;2.47;;;;;;;21.47;73.17;101043.56;453426;115;922389;-72
2021/06/18 04:10:02;;;;;;;4.93;1.81;;;;;;;21.46;73.33;101046.60;449601;116;926746;-76
2021/06/18 04:11:08;;;;;;;4.80;2.21;;;;;;;21.45;73.42;101056.03;452086;116;924165;-70
2021/06/18 04:12:15;;;;;;;5.97;2.30;;;;;;;21.45;73.40;101051.31;450217;116;925000;-75
2021/06/18 04:13:20;;;;;;;4.09;2.34;;;;;;;21.46;73.29;101054.92;445653;118;924263;-74
2021/06/18 04:14:23;;;;;;;5.73;2.08;;;;;;;21.45;73.33;101056.86;446543;116;924085;-74
2021/06/18 04:15:28;;;;;;;6.54;2.15;;;;;;;21.45;73.39;101061.58;452009;115;923366;-72
2021/06/18 04:16:34;;;;;;;6.38;1.95;;;;;;;21.44;73.45;101063.55;450788;115;923459;-74
2021/06/18 04:17:40;;;;;;;5.86;2.72;;;;;;;21.45;73.62;101059.64;451039;116;922213;-73
2021/06/18 04:18:47;;;;;;;5.24;2.13;;;;;;;21.46;73.67;101069.63;449964;116;923587;-71
2021/06/18 04:19:52;;;;;;;4.13;2.04;;;;;;;21.48;73.73;101061.05;448500;116;924006;-72
2021/06/18 04:20:57;;;;;;;6.72;2.52;;;;;;;21.50;73.65;101059.64;450229;116;925042;-70
2021/06/18 04:22:04;;;;;;;3.61;1.91;;;;;;;21.52;73.53;101064.92;450653;116;924244;-72
2021/06/18 04:23:08;;;;;;;3.82;2.49;;;;;;;21.52;73.51;101068.54;452287;116;922689;-74
2021/06/18 04:24:13;;;;;;;5.14;2.27;;;;;;;21.54;73.49;101059.95;452203;116;927188;-76
2021/06/18 04:25:18;;;;;;;6.48;2.33;;;;;;;21.54;73.51;101066.33;448835;116;922864;-73
2021/06/18 04:26:23;;;;;;;7.06;2.73;;;;;;;21.55;73.55;101068.00;449783;115;924618;-71
2021/06/18 04:27:27;;;;;;;3.94;2.45;;;;;;;21.56;73.57;101061.31;450438;116;922525;-71
2021/06/18 04:28:31;;;;;;;6.66;2.72;;;;;;;21.57;73.58;101062.98;441622;116;922529;-72
2021/06/18 04:29:35;;;;;;;6.11;4.51;;;;;;;21.58;73.52;101058.27;443007;116;930499;-72
2021/06/18 04:30:39;;;;;;;6.17;3.66;;;;;;;21.58;73.51;101052.73;451851;116;922962;-73
2021/06/18 04:31:44;;;;;;;5.66;3.18;;;;;;;21.58;73.42;101044.41;450185;116;931960;-73
2021/06/18 04:32:48;;;;;;;6.21;2.90;;;;;;;21.58;73.43;101045.23;449888;116;930536;-74
2021/06/18 04:33:51;;;;;;;9.51;3.02;;;;;;;21.58;73.41;101042.46;450980;116;922770;-73
2021/06/18 04:34:55;;;;;;;5.04;2.92;;;;;;;21.59;73.38;101046.91;451233;116;930487;-73
2021/06/18 04:35:59;;;;;;;5.43;2.77;;;;;;;21.60;73.40;101048.58;449519;115;924157;-73
2021/06/18 04:37:04;;;;;;;8.11;2.48;;;;;;;21.61;73.46;101035.54;449816;116;926937;-73
2021/06/18 04:38:08;;;;;;;5.27;2.94;;;;;;;21.61;73.51;101041.89;450193;116;924025;-74
2021/06/18 04:39:12;;;;;;;5.35;3.04;;;;;;;21.62;73.50;101038.02;450541;116;922791;-73
2021/06/18 04:40:17;;;;;;;6.57;3.23;;;;;;;21.64;73.47;101032.20;451075;116;924526;-73
2021/06/18 04:41:22;;;;;;;7.03;3.27;;;;;;;21.66;73.45;101037.48;452731;116;923905;-74
2021/06/18 04:42:26;;;;;;;6.98;2.85;;;;;;;21.67;73.40;101042.73;449461;116;926150;-71
2021/06/18 04:43:30;;;;;;;6.30;3.18;;;;;;;21.69;73.41;101032.20;450165;116;923869;-75
2021/06/18 04:44:34;;;;;;;7.32;3.28;;;;;;;21.70;73.41;101039.41;450454;116;923968;-74
2021/06/18 04:45:38;;;;;;;8.92;2.88;;;;;;;21.71;73.26;101035.53;450028;116;923350;-72
2021/06/18 04:46:45;;;;;;;6.94;2.84;;;;;;;21.71;73.22;101049.41;449958;116;922500;-72
2021/06/18 04:47:49;;;;;;;5.68;2.66;;;;;;;21.73;73.17;101040.78;452562;116;923127;-72
2021/06/18 04:48:55;;;;;;;6.58;2.61;;;;;;;21.73;73.26;101041.63;452569;114;930496;-71
2021/06/18 04:49:59;;;;;;;5.66;2.71;;;;;;;21.74;72.96;101040.52;450794;116;923104;-72
2021/06/18 04:51:05;;;;;;;4.78;2.69;;;;;;;21.74;72.94;101040.52;448112;117;924780;-75
2021/06/18 04:52:08;;;;;;;5.26;2.37;;;;;;;21.75;73.00;101047.73;448412;116;924600;-72
2021/06/18 04:53:14;;;;;;;5.74;2.88;;;;;;;21.77;73.00;101050.25;452173;116;925337;-74
2021/06/18 04:54:18;;;;;;;4.93;3.37;;;;;;;21.77;72.92;101053.02;452522;116;924030;-72
2021/06/18 04:55:24;;;;;;;5.74;3.49;;;;;;;21.76;72.86;101057.73;450380;116;926694;-76
2021/06/18 04:56:30;;;;;;;7.88;3.04;;;;;;;21.77;72.91;101058.58;447695;117;925542;-74
2021/06/18 04:57:34;;;;;;;6.06;3.12;;;;;;;21.77;72.93;101075.23;448506;116;924059;-72
2021/06/18 04:58:38;;;;;;;3.51;3.11;;;;;;;21.77;72.90;101076.06;452432;116;926259;-75
2021/06/18 04:59:43;;;;;;;7.05;3.96;;;;;;;21.75;72.84;101075.50;452148;114;933567;-74
2021/06/18 05:00:47;;;;;;;7.03;4.74;;;;;;;21.76;72.83;101079.11;450751;116;932847;-74
2021/06/18 05:01:51;;;;;;;4.44;2.77;;;;;;;21.73;72.74;101086.03;448865;116;928223;-73
2021/06/18 05:02:56;;;;;;;6.51;3.14;;;;;;;21.72;72.71;101087.17;452768;114;925840;-74
2021/06/18 05:04:00;;;;;;;3.55;2.78;;;;;;;21.71;72.79;101098.54;450469;116;924693;-74